Time;durP1;ratioP1;P1;durP2;ratioP2;P2;SDS_P1;SDS_P2;PMS_P1;PMS_P2;Temp;Humidity;BMP_temperature;BMP_pressure;BME280_temperature;BME280_humidity;BME280_pressure;Samples;Min_cycle;Max_cycle;Signal;HPM_P1;HPM_P2
2022/11/17 00:00:48;;;;;;;8.30;5.80;;;8.70;19.70;;;;;;7361565;19;20018;-72
2022/11/17 00:03:18;;;;;;;10.15;6.53;;;8.60;19.70;;;;;;7382562;19;20014;-71
2022/11/17 00:05:50;;;;;;;7.43;5.63;;;8.60;19.80;;;;;;7361880;19;20117;-71
2022/11/17 00:08:22;;;;;;;11.20;6.82;;;8.60;19.90;;;;;;7354719;19;20003;-70
2022/11/17 00:10:54;;;;;;;10.07;6.30;;;8.60;20.10;;;;;;7362127;19;20029;-70
2022/11/17 00:16:07;;;;;;;8.95;5.70;;;8.60;20.20;;;;;;7360185;19;20022;-71
2022/11/17 00:21:25;;;;;;;9.77;6.03;;;8.60;19.50;;;;;;7359731;19;20971;-71
2022/11/17 00:23:55;;;;;;;12.38;5.50;;;8.60;20.30;;;;;;7363064;19;20496;-72
2022/11/17 00:26:30;;;;;;;7.20;5.55;;;8.60;21.80;;;;;;7357650;19;20339;-71
2022/11/17 00:29:01;;;;;;;8.02;5.38;;;8.60;21.80;;;;;;7356960;19;20379;-71
2022/11/17 00:34:17;;;;;;;9.87;5.50;;;8.70;21.90;;;;;;7362506;19;20014;-72
2022/11/17 00:36:48;;;;;;;6.78;4.97;;;8.60;21.40;;;;;;7370962;19;20021;-72
2022/11/17 00:39:21;;;;;;;8.45;6.00;;;8.60;22.10;;;;;;7378340;19;20011;-71
2022/11/17 00:41:54;;;;;;;8.52;5.22;;;8.60;22.20;;;;;;7361472;19;20370;-70
2022/11/17 00:44:24;;;;;;;8.70;5.47;;;8.50;23.30;;;;;;7367145;19;20043;-70
2022/11/17 00:46:54;;;;;;;10.20;7.15;;;8.60;22.90;;;;;;7365768;19;20013;-71
2022/11/17 00:49:26;;;;;;;11.27;6.05;;;8.60;23.10;;;;;;7363602;19;20022;-71
2022/11/17 00:51:57;;;;;;;9.57;5.40;;;8.60;22.60;;;;;;7365532;19;20049;-72
2022/11/17 00:54:27;;;;;;;8.18;5.82;;;8.50;23.20;;;;;;7391408;19;20018;-71
2022/11/17 00:57:00;;;;;;;12.85;6.13;;;8.60;23.40;;;;;;7364229;19;20060;-72
2022/11/17 00:59:29;;;;;;;10.00;6.50;;;8.60;23.00;;;;;;7362751;19;20014;-72
2022/11/17 01:01:59;;;;;;;13.93;6.70;;;8.60;23.20;;;;;;7364669;19;20086;-71
2022/11/17 01:04:29;;;;;;;10.85;6.50;;;8.60;23.00;;;;;;7368124;19;20086;-72
2022/11/17 01:06:59;;;;;;;11.90;6.38;;;8.70;22.90;;;;;;7364656;19;20107;-72
2022/11/17 01:09:29;;;;;;;12.00;5.97;;;8.70;22.00;;;;;;7384142;19;20485;-71
2022/11/17 01:12:01;;;;;;;11.90;5.88;;;8.70;21.90;;;;;;7365404;19;20462;-72
2022/11/17 01:14:32;;;;;;;9.80;5.60;;;8.80;21.00;;;;;;7367004;19;20014;-71
2022/11/17 01:17:01;;;;;;;12.68;5.93;;;8.80;21.10;;;;;;7363687;19;20014;-71
2022/11/17 01:19:31;;;;;;;10.00;6.50;;;8.80;21.30;;;;;;7363391;19;20521;-71
2022/11/17 01:22:01;;;;;;;10.15;6.13;;;8.80;21.70;;;;;;7364634;19;20022;-71
2022/11/17 01:24:31;;;;;;;8.55;5.53;;;8.80;22.00;;;;;;7388883;19;20398;-71
2022/11/17 01:27:03;;;;;;;8.57;5.47;;;8.80;22.10;;;;;;7362049;19;20015;-71
2022/11/17 01:29:33;;;;;;;8.95;5.90;;;8.80;22.00;;;;;;7362256;19;20010;-71
2022/11/17 01:32:03;;;;;;;10.23;6.35;;;8.70;22.00;;;;;;7363857;19;20616;-71
2022/11/17 01:34:33;;;;;;;14.10;6.57;;;8.70;23.60;;;;;;7367925;19;20106;-71
2022/11/17 01:39:45;;;;;;;10.15;6.28;;;8.70;24.00;;;;;;7385199;19;20099;-71
2022/11/17 01:42:20;;;;;;;9.13;6.00;;;8.70;23.90;;;;;;7363657;19;20010;-71
2022/11/17 01:45:02;;;;;;;10.38;6.07;;;8.70;24.50;;;;;;7365532;19;20010;-71
2022/11/17 01:47:41;;;;;;;8.18;5.78;;;8.70;24.40;;;;;;7360842;19;20021;-71
2022/11/17 01:50:21;;;;;;;11.48;5.50;;;8.70;24.70;;;;;;7366769;19;20010;-71
2022/11/17 01:52:53;;;;;;;8.13;5.55;;;8.70;24.80;;;;;;7362870;19;20564;-71
2022/11/17 01:55:26;;;;;;;10.77;5.80;;;8.70;25.30;;;;;;7366777;19;20006;-71
2022/11/17 01:58:04;;;;;;;7.72;5.65;;;8.70;25.40;;;;;;7357917;19;20007;-71
2022/11/17 02:00:34;;;;;;;9.60;5.93;;;8.60;25.70;;;;;;7388232;19;20502;-71
2022/11/17 02:03:10;;;;;;;11.07;5.80;;;8.60;26.50;;;;;;7361509;19;20037;-71
2022/11/17 02:05:50;;;;;;;8.75;5.45;;;8.60;27.40;;;;;;7364623;19;20018;-71
2022/11/17 02:08:25;;;;;;;8.73;5.53;;;8.60;26.90;;;;;;7359446;19;20426;-71
2022/11/17 02:10:56;;;;;;;8.80;5.70;;;8.70;27.30;;;;;;7364683;19;20325;-70
2022/11/17 02:13:30;;;;;;;7.80;5.93;;;8.70;27.80;;;;;;7362378;19;20006;-70
2022/11/17 02:15:59;;;;;;;10.43;6.05;;;8.60;27.70;;;;;;7364195;19;20073;-71
2022/11/17 02:18:30;;;;;;;9.80;5.93;;;8.60;27.90;;;;;;7382677;19;20014;-70
2022/11/17 02:21:19;;;;;;;9.43;5.68;;;8.60;27.90;;;;;;7364261;19;20081;-71
2022/11/17 02:24:14;;;;;;;6.03;4.63;;;8.70;28.40;;;;;;7364860;19;20423;-70
2022/11/17 02:27:10;;;;;;;8.30;4.97;;;8.70;28.40;;;;;;7361701;19;20719;-70
2022/11/17 02:29:49;;;;;;;7.55;4.72;;;8.70;28.60;;;;;;7361717;19;20018;-70
2022/11/17 02:32:26;;;;;;;9.15;4.80;;;8.70;28.50;;;;;;7363393;19;20013;-71
2022/11/17 02:35:00;;;;;;;5.85;4.00;;;8.70;28.80;;;;;;7364058;19;20023;-71
2022/11/17 02:37:39;;;;;;;6.13;4.10;;;8.60;28.70;;;;;;7360160;19;20014;-70
2022/11/17 02:40:15;;;;;;;7.03;4.20;;;8.60;28.70;;;;;;7364594;19;20367;-70
2022/11/17 02:45:40;;;;;;;9.27;4.72;;;8.60;28.70;;;;;;7364398;19;20018;-70
2022/11/17 02:48:15;;;;;;;5.93;4.43;;;8.50;28.90;;;;;;7357429;19;20013;-70
2022/11/17 02:50:47;;;;;;;7.03;4.60;;;8.50;29.30;;;;;;7363966;19;20003;-70
2022/11/17 02:53:19;;;;;;;7.47;4.25;;;8.40;30.20;;;;;;7362272;19;20018;-70
2022/11/17 02:55:53;;;;;;;8.38;3.90;;;8.40;30.30;;;;;;7362771;19;20010;-70
2022/11/17 02:58:23;;;;;;;6.50;4.05;;;8.40;31.20;;;;;;7358280;19;20017;-70
2022/11/17 03:01:11;;;;;;;6.10;3.88;;;8.40;31.90;;;;;;7363947;19;20017;-71
2022/11/17 03:03:54;;;;;;;7.15;4.63;;;8.40;31.80;;;;;;7385027;19;20019;-70
2022/11/17 03:06:35;;;;;;;9.32;4.35;;;8.30;32.30;;;;;;7361248;19;20002;-71
2022/11/17 03:09:12;;;;;;;6.68;4.50;;;8.40;33.00;;;;;;7360184;19;20014;-70
2022/11/17 03:11:52;;;;;;;6.22;4.18;;;8.40;32.40;;;;;;7360966;19;20118;-70
2022/11/17 03:14:29;;;;;;;8.75;4.80;;;8.50;32.50;;;;;;7364747;19;20010;-70
2022/11/17 03:17:06;;;;;;;5.47;4.05;;;8.50;32.50;;;;;;7360602;19;20021;-70
2022/11/17 03:19:43;;;;;;;7.25;4.43;;;8.60;31.40;;;;;;7358738;19;20343;-71
2022/11/17 03:22:17;;;;;;;5.82;4.32;;;8.60;30.80;;;;;;7361146;19;20003;-70
2022/11/17 03:24:50;;;;;;;;;;;8.60;30.90;;;;;;7375448;19;20017;-71
2022/11/17 03:27:25;;;;;;;10.70;5.10;;;8.70;30.20;;;;;;7380515;19;19942;-70
2022/11/17 03:29:59;;;;;;;7.43;5.10;;;8.80;28.80;;;;;;7361243;19;20522;-71
2022/11/17 03:32:37;;;;;;;6.47;4.07;;;9.00;27.20;;;;;;7361077;19;20384;-71
2022/11/17 03:35:11;;;;;;;7.53;4.60;;;9.00;27.30;;;;;;7362960;19;20003;-71
2022/11/17 03:37:45;;;;;;;5.57;4.20;;;9.10;26.50;;;;;;7355222;19;20015;-71
2022/11/17 03:40:18;;;;;;;6.32;4.40;;;9.00;27.10;;;;;;7363047;19;20016;-71
2022/11/17 03:42:52;;;;;;;5.55;3.70;;;8.90;27.70;;;;;;7359724;19;20017;-74
2022/11/17 03:45:25;;;;;;;8.38;4.60;;;8.90;28.20;;;;;;7384668;19;20367;-71
2022/11/17 03:48:03;;;;;;;7.00;4.20;;;9.00;28.30;;;;;;7355134;19;20373;-71
2022/11/17 03:50:38;;;;;;;6.68;4.60;;;8.90;28.30;;;;;;7362910;19;20011;-71
2022/11/17 03:53:08;;;;;;;9.40;4.85;;;8.90;29.00;;;;;;7360155;19;20065;-71
2022/11/17 03:55:43;;;;;;;5.60;3.92;;;8.90;29.00;;;;;;7362000;19;20011;-71
2022/11/17 03:58:17;;;;;;;8.52;4.75;;;8.90;29.00;;;;;;7353985;19;20022;-71
2022/11/17 04:00:53;;;;;;;9.05;4.53;;;8.90;29.60;;;;;;7371889;19;20010;-72
2022/11/17 04:03:30;;;;;;;6.57;4.40;;;8.80;30.40;;;;;;7381175;19;20022;-71
2022/11/17 04:05:59;;;;;;;9.20;5.53;;;8.80;31.60;;;;;;7361734;19;20015;-71
2022/11/17 04:08:31;;;;;;;7.30;5.63;;;8.80;32.70;;;;;;7356661;19;20010;-71
2022/11/17 04:16:26;;;;;;;7.03;4.22;;;8.90;32.60;;;;;;7359939;19;20006;-71
2022/11/17 04:18:58;;;;;;;6.78;4.30;;;8.90;32.40;;;;;;7361842;19;20014;-71
2022/11/17 04:21:28;;;;;;;11.43;4.75;;;9.00;32.80;;;;;;7387413;19;20037;-71
2022/11/17 04:23:58;;;;;;;6.90;3.78;;;9.00;32.30;;;;;;7369911;19;20010;-71
2022/11/17 04:29:13;;;;;;;;;;;9.10;32.00;;;;;;7364576;19;20010;-71
2022/11/17 04:31:42;;;;;;;6.30;3.83;;;9.00;32.90;;;;;;7366260;19;20181;-71
2022/11/17 04:34:15;;;;;;;7.13;3.47;;;9.10;33.00;;;;;;7369955;19;20014;-71
2022/11/17 04:36:45;;;;;;;8.05;4.00;;;9.10;32.00;;;;;;7387745;19;20006;-71
2022/11/17 04:39:16;;;;;;;11.77;3.83;;;9.10;32.90;;;;;;7365136;19;20010;-72
2022/11/17 04:41:52;;;;;;;7.30;3.63;;;9.10;33.30;;;;;;7365314;19;20022;-69
2022/11/17 04:44:24;;;;;;;4.65;3.42;;;9.10;34.30;;;;;;7369848;19;20062;-71
2022/11/17 04:46:54;;;;;;;6.05;3.72;;;9.10;34.10;;;;;;7367269;19;20021;-69
2022/11/17 04:49:28;;;;;;;4.50;3.38;;;9.10;35.30;;;;;;7366216;19;20011;-71
2022/11/17 04:51:57;;;;;;;6.78;3.53;;;9.10;36.80;;;;;;7364911;19;20053;-71
2022/11/17 04:54:27;;;;;;;4.25;3.30;;;9.10;37.90;;;;;;7390860;19;20014;-71
2022/11/17 04:56:57;;;;;;;7.63;3.58;;;9.10;38.60;;;;;;7366602;19;20015;-71
2022/11/17 04:59:27;;;;;;;7.00;3.65;;;9.20;39.40;;;;;;7365194;19;20060;-71
2022/11/17 05:01:57;;;;;;;5.53;3.33;;;9.20;39.40;;;;;;7363371;19;20101;-71
2022/11/17 05:07:19;;;;;;;;;;;9.20;39.80;;;;;;7368884;19;20687;-71
2022/11/17 05:09:49;;;;;;;7.13;4.10;;;9.20;40.50;;;;;;7364133;19;19946;-71
2022/11/17 05:15:01;;;;;;;6.60;3.97;;;9.20;40.40;;;;;;7367587;19;20018;-71
2022/11/17 05:17:28;;;;;;;6.28;3.65;;;9.20;40.90;;;;;;7364892;19;21165;-71
2022/11/17 05:20:01;;;;;;;5.32;3.72;;;9.20;41.10;;;;;;7363914;19;20094;-71
2022/11/17 05:25:13;;;;;;;6.97;3.67;;;9.20;41.50;;;;;;7367447;19;20014;-71
2022/11/17 05:27:43;;;;;;;6.60;3.95;;;9.20;41.60;;;;;;7385891;19;20458;-71
2022/11/17 05:30:14;;;;;;;6.55;3.70;;;9.20;41.50;;;;;;7363595;19;20014;-71
2022/11/17 05:32:44;;;;;;;5.53;3.92;;;9.20;41.90;;;;;;7362955;19;20400;-71
2022/11/17 05:35:16;;;;;;;5.82;4.32;;;9.10;42.30;;;;;;7366112;19;20090;-71
2022/11/17 05:37:46;;;;;;;5.63;4.70;;;9.10;43.00;;;;;;7366057;19;20355;-71
2022/11/17 05:40:16;;;;;;;6.53;4.10;;;9.00;43.70;;;;;;7361315;19;20011;-71
2022/11/17 05:42:46;;;;;;;7.40;4.78;;;8.90;44.50;;;;;;7385032;19;20014;-70
2022/11/17 05:45:16;;;;;;;8.23;4.82;;;9.00;45.10;;;;;;7365432;19;20467;-70
2022/11/17 05:47:45;;;;;;;6.75;4.47;;;9.10;45.10;;;;;;7362499;19;20433;-69
2022/11/17 05:50:18;;;;;;;9.18;4.30;;;9.10;44.80;;;;;;7361753;19;20030;-70
2022/11/17 05:52:48;;;;;;;6.25;4.25;;;9.20;44.20;;;;;;7360848;19;20010;-70
2022/11/17 05:55:18;;;;;;;6.72;4.28;;;9.20;43.50;;;;;;7364496;19;20014;-70
2022/11/17 05:57:48;;;;;;;7.13;4.20;;;9.30;42.20;;;;;;7372185;19;20142;-70
2022/11/17 06:00:18;;;;;;;7.03;4.10;;;9.40;40.70;;;;;;7382721;19;20017;-70
2022/11/17 06:02:52;;;;;;;5.03;4.10;;;9.40;39.50;;;;;;7359446;19;20016;-70
2022/11/17 06:05:25;;;;;;;6.38;4.05;;;9.40;39.30;;;;;;7363761;19;20049;-71
2022/11/17 06:07:57;;;;;;;9.95;4.80;;;9.40;38.70;;;;;;7362878;19;20011;-70
2022/11/17 06:10:28;;;;;;;7.13;3.95;;;9.40;38.40;;;;;;7359727;19;20462;-71
2022/11/17 06:12:58;;;;;;;7.57;3.88;;;9.40;39.40;;;;;;7361032;19;20529;-70
2022/11/17 06:15:28;;;;;;;6.03;4.13;;;9.40;39.10;;;;;;7384199;19;20015;-71
2022/11/17 06:18:00;;;;;;;6.97;3.53;;;9.40;38.40;;;;;;7362592;19;20021;-71
2022/11/17 06:20:36;;;;;;;8.52;3.42;;;9.50;37.90;;;;;;7361355;19;20017;-71
2022/11/17 06:23:08;;;;;;;7.00;3.70;;;9.60;37.30;;;;;;7363005;19;20029;-71
2022/11/17 06:25:40;;;;;;;5.60;3.20;;;9.60;36.50;;;;;;7364637;19;20037;-70
2022/11/17 06:28:14;;;;;;;7.40;3.47;;;9.60;35.70;;;;;;7358430;19;20011;-71
2022/11/17 06:30:44;;;;;;;4.35;3.00;;;9.70;35.10;;;;;;7384815;19;20478;-71
2022/11/17 06:33:18;;;;;;;5.63;3.15;;;9.70;33.40;;;;;;7358746;19;20014;-71
2022/11/17 06:35:51;;;;;;;7.80;3.40;;;9.70;33.40;;;;;;7361801;19;20011;-71
2022/11/17 06:38:21;;;;;;;5.23;3.27;;;9.80;33.50;;;;;;7356997;19;20070;-71
2022/11/17 06:40:51;;;;;;;4.47;2.90;;;9.80;33.20;;;;;;7360554;19;20292;-71
2022/11/17 06:43:21;;;;;;;4.78;3.00;;;9.70;32.60;;;;;;7360110;19;20026;-71
2022/11/17 06:45:50;;;;;;;4.38;3.00;;;9.70;32.50;;;;;;7361182;19;20454;-71
2022/11/17 06:48:25;;;;;;;4.97;3.25;;;9.70;33.30;;;;;;7377381;19;20466;-71
2022/11/17 06:50:58;;;;;;;3.83;3.17;;;9.60;33.40;;;;;;7361628;19;20018;-71
2022/11/17 06:53:28;;;;;;;5.60;3.35;;;9.70;33.40;;;;;;7359704;19;20014;-71
2022/11/17 06:56:06;;;;;;;4.72;2.72;;;9.80;33.50;;;;;;7361503;19;20045;-71
2022/11/17 06:58:36;;;;;;;6.53;3.05;;;9.80;32.50;;;;;;7358249;19;20505;-71
2022/11/17 07:01:08;;;;;;;4.63;3.25;;;9.80;31.80;;;;;;7361458;19;20047;-71
2022/11/17 07:03:40;;;;;;;4.85;3.67;;;9.90;32.50;;;;;;7379999;19;20034;-71
2022/11/17 07:06:14;;;;;;;4.53;3.33;;;9.80;32.40;;;;;;7360184;19;20038;-71
2022/11/17 07:08:44;;;;;;;;;;;9.90;32.00;;;;;;7357438;19;20014;-71
2022/11/17 07:11:15;;;;;;;4.32;3.20;;;9.90;31.90;;;;;;7361151;19;19923;-71
2022/11/17 07:13:45;;;;;;;4.25;2.35;;;9.90;30.80;;;;;;7362556;19;20018;-70
2022/11/17 07:16:18;;;;;;;6.03;2.97;;;9.90;29.80;;;;;;7361427;19;20090;-70
2022/11/17 07:18:53;;;;;;;4.53;3.00;;;10.00;29.20;;;;;;7355538;19;20043;-70
2022/11/17 07:21:26;;;;;;;4.95;2.80;;;10.00;28.90;;;;;;7381421;19;20431;-71
2022/11/17 07:23:56;;;;;;;2.90;2.30;;;10.10;28.30;;;;;;7363177;19;20029;-70
2022/11/17 07:26:26;;;;;;;7.07;2.75;;;10.10;28.50;;;;;;7361928;19;20010;-70
2022/11/17 07:28:56;;;;;;;4.30;2.80;;;10.20;27.50;;;;;;7354943;19;20024;-71
2022/11/17 07:31:26;;;;;;;4.85;2.47;;;10.30;26.30;;;;;;7357774;19;20011;-70
2022/11/17 07:33:56;;;;;;;4.30;2.80;;;10.30;25.70;;;;;;7361670;19;20029;-71
2022/11/17 07:36:28;;;;;;;8.07;2.95;;;10.30;26.10;;;;;;7383100;19;20029;-71
2022/11/17 07:38:58;;;;;;;5.72;2.80;;;10.40;25.80;;;;;;7351412;19;20011;-70
2022/11/17 07:41:28;;;;;;;6.55;3.13;;;10.50;25.90;;;;;;7357288;19;20620;-70
2022/11/17 07:43:57;;;;;;;7.15;3.70;;;10.50;24.80;;;;;;7362135;19;20089;-71
2022/11/17 07:46:27;;;;;;;9.05;3.83;;;10.50;24.50;;;;;;7360500;19;20011;-70
2022/11/17 07:48:57;;;;;;;7.20;3.65;;;10.60;24.90;;;;;;7354269;19;20429;-70
2022/11/17 07:51:30;;;;;;;6.63;4.00;;;10.60;24.80;;;;;;7383905;19;20019;-70
2022/11/17 07:54:00;;;;;;;6.78;3.60;;;10.60;24.40;;;;;;7367996;19;20038;-70
2022/11/17 07:56:29;;;;;;;5.63;3.00;;;10.60;23.90;;;;;;7368375;19;20100;-70
2022/11/17 07:58:59;;;;;;;6.50;2.78;;;10.70;24.00;;;;;;7361227;19;20006;-70
2022/11/17 08:01:29;;;;;;;5.93;3.20;;;10.70;23.60;;;;;;7361898;19;20042;-70
2022/11/17 08:03:59;;;;;;;6.35;2.47;;;10.70;22.90;;;;;;7369117;19;20112;-70
2022/11/17 08:06:32;;;;;;;7.30;2.65;;;10.70;22.60;;;;;;7391008;19;20691;-71
2022/11/17 08:09:02;;;;;;;5.85;2.58;;;10.70;23.20;;;;;;7362428;19;20098;-69
2022/11/17 08:11:31;;;;;;;7.05;2.53;;;10.80;22.60;;;;;;7362593;19;20007;-69
2022/11/17 08:14:03;;;;;;;3.92;1.75;;;10.80;21.60;;;;;;7370268;19;20006;-69
2022/11/17 08:16:32;;;;;;;4.13;2.03;;;10.90;20.10;;;;;;7368076;19;20030;-70
2022/11/17 08:19:03;;;;;;;5.18;2.35;;;10.90;19.80;;;;;;7361519;19;20053;-70
2022/11/17 08:21:39;;;;;;;3.88;1.73;;;10.90;20.40;;;;;;7386286;19;20052;-69
2022/11/17 08:24:10;;;;;;;7.80;2.03;;;10.90;19.90;;;;;;7368174;19;20371;-69
2022/11/17 08:26:39;;;;;;;3.92;2.08;;;11.00;19.60;;;;;;7368091;19;20082;-69
2022/11/17 08:29:09;;;;;;;3.60;1.70;;;11.00;18.90;;;;;;7362647;19;20018;-70
2022/11/17 08:31:44;;;;;;;2.78;1.55;;;11.10;17.90;;;;;;7362252;19;20114;-71
2022/11/17 08:34:14;;;;;;;4.05;1.50;;;11.10;17.30;;;;;;7367587;19;20018;-71
2022/11/17 08:36:47;;;;;;;3.70;1.13;;;11.20;15.90;;;;;;7388949;19;20018;-69
2022/11/17 08:39:16;;;;;;;3.33;1.23;;;11.30;15.30;;;;;;7362011;19;20014;-69
2022/11/17 08:41:47;;;;;;;3.08;0.80;;;11.30;14.20;;;;;;7361889;19;20494;-70
2022/11/17 08:44:17;;;;;;;4.05;1.00;;;11.40;12.20;;;;;;7366825;19;20027;-69
2022/11/17 08:46:47;;;;;;;6.97;1.13;;;11.50;10.80;;;;;;7365755;19;20015;-69
2022/11/17 08:49:17;;;;;;;4.30;1.10;;;11.70;8.10;;;;;;7362522;19;20014;-69
2022/11/17 08:51:49;;;;;;;2.35;0.82;;;11.70;8.30;;;;;;7378215;19;20010;-69
2022/11/17 08:54:19;;;;;;;1.58;0.88;;;11.70;8.10;;;;;;7385199;19;20406;-69
2022/11/17 08:56:49;;;;;;;3.75;0.98;;;11.70;8.10;;;;;;7361574;19;20020;-69
2022/11/17 08:59:19;;;;;;;5.22;1.15;;;11.70;7.60;;;;;;7361697;19;20146;-69
2022/11/17 09:01:49;;;;;;;2.42;0.68;;;11.70;8.10;;;;;;7358342;19;20010;-69
2022/11/17 09:04:19;;;;;;;3.65;1.00;;;11.60;7.40;;;;;;7365479;19;20019;-69
2022/11/17 09:06:52;;;;;;;1.00;0.50;;;11.70;7.00;;;;;;7367565;19;20082;-69
2022/11/17 09:09:22;;;;;;;2.10;0.90;;;11.70;5.80;;;;;;7384060;19;20063;-69
2022/11/17 09:11:52;;;;;;;4.60;0.80;;;11.70;6.00;;;;;;7359347;19;20010;-69
2022/11/17 09:14:22;;;;;;;2.72;1.05;;;11.70;6.60;;;;;;7365903;19;20014;-69
2022/11/17 09:16:52;;;;;;;4.30;1.25;;;11.80;6.10;;;;;;7365238;19;20011;-69
2022/11/17 09:19:22;;;;;;;2.22;0.90;;;12.00;3.90;;;;;;7361450;19;20010;-70
2022/11/17 09:21:55;;;;;;;2.88;0.70;;;12.10;4.50;;;;;;7361158;19;20011;-70
2022/11/17 09:24:25;;;;;;;2.78;1.05;;;12.10;3.40;;;;;;7386183;19;20383;-69
2022/11/17 09:26:56;;;;;;;2.63;0.90;;;12.10;2.70;;;;;;7364742;19;20087;-70
2022/11/17 09:29:26;;;;;;;2.10;0.88;;;12.20;2.80;;;;;;7360962;19;20027;-69
2022/11/17 09:31:56;;;;;;;2.25;0.60;;;12.20;2.40;;;;;;7360929;19;20006;-69
2022/11/17 09:34:28;;;;;;;1.50;0.60;;;12.20;2.50;;;;;;7364612;19;20081;-69
2022/11/17 09:37:00;;;;;;;3.45;0.90;;;12.10;1.70;;;;;;7364875;19;20018;-70
2022/11/17 09:39:30;;;;;;;2.03;0.70;;;12.10;1.70;;;;;;7383961;19;20053;-69
2022/11/17 09:42:00;;;;;;;2.03;0.90;;;12.10;1.80;;;;;;7361569;19;20686;-69
2022/11/17 09:44:39;;;;;;;1.85;0.60;;;12.10;2.30;;;;;;7364274;19;20033;-69
2022/11/17 09:47:21;;;;;;;2.90;0.57;;;12.10;1.70;;;;;;7361933;19;20015;-70
2022/11/17 09:49:58;;;;;;;2.58;0.60;;;12.20;1.80;;;;;;7355029;19;20015;-70
2022/11/17 09:52:35;;;;;;;1.60;0.60;;;12.20;1.80;;;;;;7360768;19;20038;-70
2022/11/17 09:55:18;;;;;;;1.08;0.47;;;12.20;1.80;;;;;;7362208;19;20021;-71
2022/11/17 09:57:51;;;;;;;1.98;0.57;;;12.20;1.80;;;;;;7371322;19;20038;-71
2022/11/17 10:00:23;;;;;;;3.30;1.25;;;12.20;1.80;;;;;;7381857;19;20081;-71
2022/11/17 10:02:55;;;;;;;2.25;0.60;;;12.20;1.00;;;;;;7361090;19;20006;-71
2022/11/17 10:05:30;;;;;;;3.95;0.88;;;12.20;1.00;;;;;;7360985;19;20006;-70
2022/11/17 10:08:08;;;;;;;1.70;0.73;;;12.20;1.00;;;;;;7364393;19;20017;-71
2022/11/17 10:10:44;;;;;;;2.97;0.57;;;12.30;1.00;;;;;;7363139;19;20470;-71
2022/11/17 10:13:22;;;;;;;2.97;0.77;;;12.30;1.00;;;;;;7360627;19;20013;-71
2022/11/17 10:15:55;;;;;;;1.35;0.60;;;12.40;1.00;;;;;;7364451;19;20025;-71
2022/11/17 10:18:25;;;;;;;4.75;1.88;;;12.40;1.00;;;;;;7384172;19;20343;-71
2022/11/17 10:20:55;;;;;;;3.03;0.80;;;12.50;1.00;;;;;;7363005;19;20025;-71
2022/11/17 10:23:34;;;;;;;8.15;1.35;;;12.60;1.00;;;;;;7360303;19;20038;-71
2022/11/17 10:26:10;;;;;;;4.68;0.95;;;12.70;1.00;;;;;;7364067;19;20040;-70
2022/11/17 10:28:41;;;;;;;3.13;0.88;;;12.80;1.00;;;;;;7359729;19;20010;-71
2022/11/17 10:31:14;;;;;;;4.30;0.77;;;12.90;1.00;;;;;;7364266;19;20017;-71
2022/11/17 10:33:47;;;;;;;4.47;0.80;;;12.90;1.00;;;;;;7384620;19;20398;-71
2022/11/17 10:36:21;;;;;;;4.47;0.90;;;12.90;1.00;;;;;;7363790;19;20025;-71
2022/11/17 10:38:55;;;;;;;3.85;1.00;;;13.00;1.00;;;;;;7358577;19;20010;-70
2022/11/17 10:41:27;;;;;;;;;;;13.00;1.00;;;;;;7361066;19;20013;-70
2022/11/17 10:44:01;;;;;;;5.82;0.90;;;12.90;1.00;;;;;;7363975;19;19953;-71
2022/11/17 10:46:31;;;;;;;5.13;0.93;;;12.90;1.00;;;;;;7362685;19;20354;-70
2022/11/17 10:49:26;;;;;;;2.67;0.90;;;12.90;1.00;;;;;;7355654;19;20019;-70
2022/11/17 10:52:07;;;;;;;4.97;0.93;;;12.90;1.00;;;;;;7357311;19;20344;-71
2022/11/17 10:54:40;;;;;;;6.32;1.20;;;13.00;1.00;;;;;;7383519;19;20075;-70
2022/11/17 10:57:16;;;;;;;11.02;1.42;;;13.00;1.00;;;;;;7359137;19;20011;-70
2022/11/17 10:59:50;;;;;;;4.40;0.95;;;13.00;1.00;;;;;;7357099;19;20020;-70
2022/11/17 11:02:31;;;;;;;3.15;1.00;;;13.00;1.00;;;;;;7358560;19;20010;-71
2022/11/17 11:05:10;;;;;;;3.28;1.00;;;13.10;1.00;;;;;;7361858;19;20072;-70
2022/11/17 11:07:41;;;;;;;5.80;1.20;;;13.20;1.00;;;;;;7361048;19;20018;-71
2022/11/17 11:10:18;;;;;;;1.95;0.80;;;13.20;1.00;;;;;;7358389;19;20071;-70
2022/11/17 11:12:55;;;;;;;6.93;1.40;;;13.10;1.00;;;;;;7367503;19;20010;-72
2022/11/17 11:15:27;;;;;;;5.05;1.02;;;13.30;1.00;;;;;;7383195;19;20369;-71
2022/11/17 11:17:58;;;;;;;3.75;1.45;;;13.50;1.00;;;;;;7358443;19;20029;-71
2022/11/17 11:20:40;;;;;;;2.97;1.45;;;13.70;1.00;;;;;;7355062;19;20018;-71
2022/11/17 11:23:19;;;;;;;5.10;0.88;;;13.90;1.00;;;;;;7355627;19;20494;-70
2022/11/17 11:25:57;;;;;;;4.57;1.35;;;13.70;1.00;;;;;;7363178;19;20081;-71
2022/11/17 11:28:39;;;;;;;5.93;1.30;;;13.60;1.00;;;;;;7358598;19;20085;-70
2022/11/17 11:31:25;;;;;;;2.28;0.80;;;13.70;1.00;;;;;;7360583;19;20010;-71
2022/11/17 11:34:07;;;;;;;3.08;1.10;;;13.70;1.00;;;;;;7361797;19;20114;-71
2022/11/17 11:36:43;;;;;;;4.65;0.73;;;13.80;1.00;;;;;;7383673;19;20063;-71
2022/11/17 11:39:27;;;;;;;4.35;0.88;;;13.80;1.00;;;;;;7355264;19;20018;-70
2022/11/17 11:42:09;;;;;;;;;;;13.70;1.00;;;;;;7356139;19;20017;-70
2022/11/17 11:44:56;;;;;;;6.65;0.93;;;13.60;1.00;;;;;;7358568;19;19915;-70
2022/11/17 11:47:43;;;;;;;2.33;0.82;;;13.70;1.00;;;;;;7359659;19;20040;-72
2022/11/17 11:50:17;;;;;;;3.28;0.85;;;13.70;1.00;;;;;;7355444;19;20007;-70
2022/11/17 11:52:56;;;;;;;5.80;1.00;;;13.60;1.00;;;;;;7357983;19;20019;-70
2022/11/17 11:55:31;;;;;;;2.08;0.65;;;13.60;1.00;;;;;;7360878;19;20007;-72
2022/11/17 11:58:12;;;;;;;2.30;0.65;;;13.60;1.00;;;;;;7359112;19;20006;-71
2022/11/17 12:00:44;;;;;;;3.75;0.90;;;13.90;1.00;;;;;;7380679;19;20061;-70
2022/11/17 12:03:21;;;;;;;5.53;0.90;;;13.90;1.00;;;;;;7354237;19;20712;-70
2022/11/17 12:06:38;;;;;;;3.03;0.80;;;14.00;1.00;;;;;;7361125;19;20010;-71
2022/11/17 12:09:08;;;;;;;2.65;0.85;;;13.70;1.00;;;;;;7353568;19;20017;-71
2022/11/17 12:14:26;;;;;;;2.83;0.75;;;13.40;1.00;;;;;;7359922;19;20021;-70
2022/11/17 12:17:04;;;;;;;4.00;0.88;;;13.50;1.00;;;;;;7359745;19;20010;-71
2022/11/17 12:19:52;;;;;;;2.88;0.85;;;13.60;1.00;;;;;;7347558;19;20014;-71
2022/11/17 12:22:54;;;;;;;2.33;0.88;;;13.50;1.00;;;;;;7346084;19;20014;-70
2022/11/17 12:25:30;;;;;;;5.93;1.10;;;13.50;1.00;;;;;;7350225;19;20010;-70
2022/11/17 12:28:00;;;;;;;2.08;0.80;;;13.50;1.00;;;;;;7347189;19;20021;-71
2022/11/17 12:30:55;;;;;;;3.22;0.80;;;13.60;1.00;;;;;;7366858;19;20018;-71
2022/11/17 12:33:25;;;;;;;3.17;0.90;;;13.70;1.00;;;;;;7344559;19;20439;-71
2022/11/17 12:36:28;;;;;;;3.85;0.60;;;13.70;1.00;;;;;;7348209;19;20085;-71
2022/11/17 12:39:01;;;;;;;5.18;0.65;;;13.80;1.00;;;;;;7350012;19;20014;-71
2022/11/17 12:42:01;;;;;;;2.75;0.80;;;13.80;1.00;;;;;;7348985;19;20018;-71
2022/11/17 12:44:52;;;;;;;3.47;0.98;;;13.90;1.00;;;;;;7352299;19;20018;-71
2022/11/17 12:47:26;;;;;;;5.35;1.52;;;13.90;1.00;;;;;;7353473;19;20010;-71
2022/11/17 12:50:14;;;;;;;;;;;13.90;1.00;;;;;;7352734;19;20019;-70
2022/11/17 12:53:03;;;;;;;5.20;0.63;;;14.10;1.00;;;;;;7352110;19;20058;-70
2022/11/17 12:55:51;;;;;;;4.07;1.00;;;14.20;1.00;;;;;;7352603;19;20014;-70
2022/11/17 12:58:27;;;;;;;2.15;0.73;;;14.20;1.00;;;;;;7347107;19;20629;-71
2022/11/17 13:01:10;;;;;;;5.07;1.35;;;14.20;1.00;;;;;;7356155;19;20010;-71
2022/11/17 13:03:50;;;;;;;4.43;1.23;;;14.20;1.00;;;;;;7368992;19;20027;-70
2022/11/17 13:06:20;;;;;;;4.82;1.00;;;14.20;1.00;;;;;;7352419;19;20038;-70
2022/11/17 13:09:08;;;;;;;4.40;1.13;;;14.20;1.00;;;;;;7350354;19;20106;-70
2022/11/17 13:11:38;;;;;;;5.10;1.10;;;14.10;1.00;;;;;;7346957;19;20011;-70
2022/11/17 13:14:10;;;;;;;7.15;1.70;;;14.10;1.00;;;;;;7351602;19;20014;-70
2022/11/17 13:16:47;;;;;;;7.45;1.33;;;14.00;1.00;;;;;;7353132;19;20023;-71
2022/11/17 13:19:36;;;;;;;17.70;1.52;;;14.10;1.00;;;;;;7346304;19;20805;-70
2022/11/17 13:22:15;;;;;;;4.20;1.10;;;14.00;1.00;;;;;;7350572;19;20062;-70
2022/11/17 13:24:46;;;;;;;5.72;1.33;;;14.00;1.00;;;;;;7371270;19;20018;-72
2022/11/17 13:27:24;;;;;;;10.57;1.73;;;14.00;1.00;;;;;;7350301;19;20490;-71
2022/11/17 13:30:12;;;;;;;4.13;1.13;;;14.00;1.00;;;;;;7350789;19;20794;-70
2022/11/17 13:32:43;;;;;;;5.35;1.30;;;14.00;1.00;;;;;;7353934;19;20013;-71
2022/11/17 13:35:24;;;;;;;7.35;1.60;;;13.90;1.00;;;;;;7354829;19;20010;-70
2022/11/17 13:38:05;;;;;;;7.15;1.80;;;13.90;1.00;;;;;;7355483;19;20007;-71
2022/11/17 13:40:37;;;;;;;4.85;1.52;;;14.00;1.00;;;;;;7353270;19;20013;-72
2022/11/17 13:43:08;;;;;;;5.88;1.88;;;14.20;1.00;;;;;;7349574;19;20454;-70
2022/11/17 13:45:39;;;;;;;4.55;1.35;;;14.40;1.00;;;;;;7376815;19;20565;-71
2022/11/17 13:48:31;;;;;;;7.38;1.70;;;14.50;1.00;;;;;;7351321;19;20481;-70
2022/11/17 13:51:19;;;;;;;7.82;1.80;;;14.60;1.00;;;;;;7356166;19;20013;-70
2022/11/17 13:53:52;;;;;;;7.85;1.92;;;14.70;1.00;;;;;;7354761;19;20054;-70
2022/11/17 13:56:24;;;;;;;6.43;1.48;;;14.80;1.00;;;;;;7353733;19;20011;-71
2022/11/17 13:58:55;;;;;;;6.78;1.73;;;14.70;1.00;;;;;;7350239;19;20763;-70
2022/11/17 14:01:27;;;;;;;3.83;1.25;;;14.60;1.00;;;;;;7351591;19;20007;-71
2022/11/17 14:04:17;;;;;;;5.43;1.25;;;14.50;1.00;;;;;;7351960;19;20030;-71
2022/11/17 14:07:00;;;;;;;9.75;1.50;;;14.30;1.00;;;;;;7369196;19;20019;-72